Aérodrome :
LOGIN :

S'inscrire | Disclaimer

   EN    FR    IT 

 










Légende :    VFR   VFR Marginal   IFR   IFR Intensif   IFR Très Intensif
Visi : 
Plafond : 
>= 8 km
>= 3000ft
5 à 8 km
1000 à 3000 ft
1500m à 5 km
500 à 1000 ft
800 à 1500m
200 à 500 ft
< 800m
< 200 ft
Symboles :   Orages  Brouillard  Fortes neiges  Fortes précipitations  Vent > 20 kt
SIGMETs :   Divers  Orages  Givrage  Turbulence  Onde Orograph.  Cendres Volcan.






- Altitude de l'aérodrome : 289 ft
- Code IATA : ZAD


LDZD - Zadar

DERNIER METAR :
  • 011230Z 20014KT 160V240 CAVOK 33/20 Q1006 NOSIG

METARs EXPIRÉS :
  • 011200Z 19015KT 150V220 9999 FEW035 SCT050 34/20 Q1007 NOSIG
  • 011130Z 19013KT 150V210 9999 FEW035 SCT050 33/18 Q1006 NOSIG
  • 011100Z 18012KT 150V230 9999 FEW035 SCT050 32/19 Q1007 NOSIG
  • 011030Z 17011KT 120V210 9999 FEW035 SCT050 32/19 Q1007 BECMG 23010KT
  • 011000Z 14008KT 080V210 9999 FEW035 SCT050 31/21 Q1007 BECMG 23010KT

TAF TAF LDZD
Valide du 01 à 12h jusqu'au 02 à 12h UTC


011125Z 0112/0212 19010KT 9999 FEW060 TX34/0114Z TN18/0203Z
PROB30
TEMPO 0115/0117 24015KT TS FEW050CB
BECMG 0116/0118 30010KT
BECMG 0119/0121 32004KT
BECMG 0210/0212 24008KT



MET'MAP, la Météo Aéronautique d'un coup d'oeil ! - Copyright ORBIFLY Décembre 2007 - Disclaimer

ORBIFLY MET'MAP TEAM :

Programmation & Développement : Alexandra Zaïnal
Sur une idée originale de : Baudouin d'Aumeries
Assistance à la programmation : Marc-Olivier Méhu
Soutien technique & logistique : Manuel Goepfert

Contact : metmap@orbifly.com




SOURCES & CREDITS :

   NOAA